JST420 YSSY-YBCG
Flight info
| Callsign | JST420 |
|---|---|
| Flight time | 1h 5m |
| Altitude | 39000 |
| Route | OLSEM Y193 BANDA Y43 GOMOL |
| Aircraft | A20N/M-SDE2E3FGHIRWXY/LB1 |
Departure
| Time | 2026-05-05 08:01 |
|---|---|
| Airport | Sydney Kingsford Smith International Airport (YSSY) |
Arrival
| Time | 2026-05-05 09:07 |
|---|---|
| Airport | Gold Coast Airport (YBCG) |
| Time | Latitude | Longitude | Altitude | Speed | Heading |
|---|---|---|---|---|---|
| 2026-05-05 07:38 | -33.93562 | 151.17760 | 30 ft | 0 kts | 279° |
| 2026-05-05 07:47 | -33.93563 | 151.17763 | 30 ft | 1 kts | 280° |
| 2026-05-05 07:47 | -33.93564 | 151.17772 | 30 ft | 1 kts | 281° |
| 2026-05-05 07:48 | -33.93566 | 151.17781 | 30 ft | 1 kts | 281° |
| 2026-05-05 07:48 | -33.93568 | 151.17790 | 30 ft | 1 kts | 277° |
| 2026-05-05 07:48 | -33.93568 | 151.17800 | 30 ft | 1 kts | 276° |
| 2026-05-05 07:48 | -33.93570 | 151.17809 | 30 ft | 1 kts | 259° |
| 2026-05-05 07:49 | -33.93568 | 151.17818 | 30 ft | 1 kts | 220° |
| 2026-05-05 07:49 | -33.93561 | 151.17823 | 30 ft | 1 kts | 187° |
| 2026-05-05 07:50 | -33.93564 | 151.17823 | 30 ft | 2 kts | 187° |
| 2026-05-05 07:51 | -33.93588 | 151.17819 | 30 ft | 5 kts | 187° |
| 2026-05-05 07:51 | -33.93636 | 151.17811 | 30 ft | 9 kts | 187° |
| 2026-05-05 07:51 | -33.93705 | 151.17796 | 30 ft | 12 kts | 193° |
| 2026-05-05 07:51 | -33.93722 | 151.17728 | 30 ft | 10 kts | 286° |
| 2026-05-05 07:52 | -33.93674 | 151.17649 | 29 ft | 13 kts | 308° |
| 2026-05-05 07:52 | -33.93707 | 151.17565 | 29 ft | 14 kts | 193° |
| 2026-05-05 07:52 | -33.93803 | 151.17585 | 29 ft | 15 kts | 166° |
| 2026-05-05 07:52 | -33.93862 | 151.17653 | 29 ft | 12 kts | 96° |
| 2026-05-05 07:53 | -33.93871 | 151.17759 | 29 ft | 13 kts | 126° |
| 2026-05-05 07:53 | -33.93942 | 151.17791 | 29 ft | 0 kts | 167° |
| 2026-05-05 07:54 | -33.93946 | 151.17793 | 29 ft | 3 kts | 167° |
| 2026-05-05 07:54 | -33.93980 | 151.17801 | 28 ft | 8 kts | 168° |
| 2026-05-05 07:55 | -33.94061 | 151.17822 | 28 ft | 16 kts | 168° |
| 2026-05-05 07:55 | -33.94196 | 151.17857 | 29 ft | 23 kts | 167° |
| 2026-05-05 07:55 | -33.94370 | 151.17902 | 30 ft | 27 kts | 169° |
| 2026-05-05 07:55 | -33.94555 | 151.17891 | 30 ft | 27 kts | 168° |
| 2026-05-05 07:56 | -33.94735 | 151.17937 | 30 ft | 26 kts | 168° |
| 2026-05-05 07:56 | -33.94915 | 151.17982 | 30 ft | 27 kts | 168° |
| 2026-05-05 07:56 | -33.95068 | 151.18031 | 30 ft | 19 kts | 145° |
| 2026-05-05 07:56 | -33.95092 | 151.18173 | 30 ft | 19 kts | 91° |
| 2026-05-05 07:57 | -33.95062 | 151.18312 | 30 ft | 17 kts | 74° |
| 2026-05-05 07:57 | -33.95044 | 151.18410 | 30 ft | 0 kts | 78° |
| 2026-05-05 07:58 | -33.95042 | 151.18423 | 30 ft | 0 kts | 78° |
| 2026-05-05 07:59 | -33.95041 | 151.18425 | 30 ft | 1 kts | 78° |
| 2026-05-05 07:59 | -33.95036 | 151.18452 | 30 ft | 5 kts | 78° |
| 2026-05-05 07:59 | -33.95027 | 151.18512 | 30 ft | 9 kts | 79° |
| 2026-05-05 07:59 | -33.95012 | 151.18601 | 30 ft | 13 kts | 78° |
| 2026-05-05 08:00 | -33.94989 | 151.18719 | 28 ft | 17 kts | 76° |
| 2026-05-05 08:00 | -33.95030 | 151.18846 | 24 ft | 18 kts | 157° |
| 2026-05-05 08:00 | -33.95070 | 151.18858 | 27 ft | 0 kts | 167° |
| 2026-05-05 08:00 | -33.95086 | 151.18862 | 26 ft | 5 kts | 167° |
| 2026-05-05 08:01 | -33.95379 | 151.18939 | 24 ft | 89 kts | 168° |
| 2026-05-05 08:01 | -33.96232 | 151.19164 | 105 ft | 153 kts | 166° |
| 2026-05-05 08:01 | -33.97356 | 151.19481 | 673 ft | 178 kts | 166° |
| 2026-05-05 08:01 | -33.98499 | 151.20192 | 1494 ft | 197 kts | 139° |
| 2026-05-05 08:02 | -33.99331 | 151.21595 | 2406 ft | 215 kts | 117° |
| 2026-05-05 08:02 | -34.00017 | 151.23278 | 3151 ft | 232 kts | 124° |
| 2026-05-05 08:02 | -34.01010 | 151.24837 | 4055 ft | 237 kts | 139° |
| 2026-05-05 08:02 | -34.02311 | 151.26154 | 4674 ft | 256 kts | 144° |
| 2026-05-05 08:03 | -34.03749 | 151.27508 | 4913 ft | 266 kts | 144° |
| 2026-05-05 08:03 | -34.05202 | 151.28886 | 5012 ft | 266 kts | 144° |
| 2026-05-05 08:03 | -34.06661 | 151.30288 | 5281 ft | 270 kts | 144° |
| 2026-05-05 08:03 | -34.08139 | 151.31723 | 6153 ft | 274 kts | 143° |
| 2026-05-05 08:04 | -34.09639 | 151.33188 | 7121 ft | 281 kts | 143° |
| 2026-05-05 08:04 | -34.11033 | 151.34863 | 8085 ft | 289 kts | 125° |
| 2026-05-05 08:04 | -34.11792 | 151.37141 | 8983 ft | 301 kts | 100° |
| 2026-05-05 08:04 | -34.11692 | 151.39672 | 9928 ft | 305 kts | 73° |
| 2026-05-05 08:05 | -34.10740 | 151.41963 | 10770 ft | 310 kts | 50° |
| 2026-05-05 08:05 | -34.09229 | 151.43926 | 11300 ft | 327 kts | 41° |
| 2026-05-05 08:05 | -34.08663 | 151.44558 | 11552 ft | 330 kts | 40° |
| 2026-05-05 08:05 | -34.07553 | 151.45712 | 12098 ft | 331 kts | 34° |
| 2026-05-05 08:06 | -34.05561 | 151.47130 | 12947 ft | 334 kts | 21° |
| 2026-05-05 08:06 | -34.03337 | 151.47979 | 13767 ft | 338 kts | 11° |
| 2026-05-05 08:06 | -34.00986 | 151.48681 | 14103 ft | 360 kts | 11° |
| 2026-05-05 08:06 | -33.98508 | 151.49465 | 14601 ft | 372 kts | 12° |
| 2026-05-05 08:07 | -33.96003 | 151.50283 | 15437 ft | 372 kts | 12° |
| 2026-05-05 08:07 | -33.93500 | 151.51108 | 16289 ft | 374 kts | 13° |
| 2026-05-05 08:07 | -33.90972 | 151.51940 | 17021 ft | 379 kts | 13° |
| 2026-05-05 08:07 | -33.88420 | 151.52779 | 17780 ft | 382 kts | 13° |
| 2026-05-05 08:08 | -33.85845 | 151.53623 | 18528 ft | 385 kts | 13° |
| 2026-05-05 08:08 | -33.83249 | 151.54473 | 19189 ft | 388 kts | 12° |
| 2026-05-05 08:08 | -33.80635 | 151.55329 | 19846 ft | 391 kts | 12° |
| 2026-05-05 08:08 | -33.78000 | 151.56192 | 20490 ft | 394 kts | 12° |
| 2026-05-05 08:09 | -33.75343 | 151.57060 | 21119 ft | 397 kts | 12° |
| 2026-05-05 08:09 | -33.72662 | 151.57935 | 21750 ft | 401 kts | 12° |
| 2026-05-05 08:09 | -33.69963 | 151.58815 | 22390 ft | 404 kts | 11° |
| 2026-05-05 08:09 | -33.67251 | 151.59725 | 23013 ft | 408 kts | 14° |
| 2026-05-05 08:10 | -33.64616 | 151.60950 | 23624 ft | 415 kts | 21° |
| 2026-05-05 08:10 | -33.62064 | 151.62609 | 24164 ft | 421 kts | 28° |
| 2026-05-05 08:10 | -33.59613 | 151.64552 | 24708 ft | 423 kts | 28° |
| 2026-05-05 08:10 | -33.57152 | 151.66505 | 25209 ft | 425 kts | 28° |
| 2026-05-05 08:11 | -33.54674 | 151.68461 | 25687 ft | 428 kts | 27° |
| 2026-05-05 08:11 | -33.52172 | 151.70416 | 26151 ft | 430 kts | 25° |
| 2026-05-05 08:11 | -33.49555 | 151.72108 | 26652 ft | 426 kts | 18° |
| 2026-05-05 08:11 | -33.46813 | 151.73407 | 27157 ft | 421 kts | 11° |
| 2026-05-05 08:12 | -33.44003 | 151.74353 | 27639 ft | 420 kts | 8° |
| 2026-05-05 08:12 | -33.41180 | 151.75253 | 28117 ft | 421 kts | 8° |
| 2026-05-05 08:12 | -33.38344 | 151.76165 | 28578 ft | 422 kts | 8° |
| 2026-05-05 08:12 | -33.35534 | 151.77073 | 29020 ft | 424 kts | 7° |
| 2026-05-05 08:13 | -33.32680 | 151.77995 | 29409 ft | 426 kts | 7° |
| 2026-05-05 08:13 | -33.29819 | 151.78920 | 29826 ft | 427 kts | 7° |
| 2026-05-05 08:13 | -33.26942 | 151.79849 | 30239 ft | 429 kts | 7° |
| 2026-05-05 08:13 | -33.24057 | 151.80780 | 30579 ft | 431 kts | 7° |
| 2026-05-05 08:14 | -33.21158 | 151.81714 | 30902 ft | 433 kts | 7° |
| 2026-05-05 08:14 | -33.18246 | 151.82652 | 31234 ft | 435 kts | 7° |
| 2026-05-05 08:14 | -33.15323 | 151.83594 | 31631 ft | 434 kts | 7° |
| 2026-05-05 08:14 | -33.12408 | 151.84534 | 32072 ft | 433 kts | 7° |
| 2026-05-05 08:15 | -33.09544 | 151.85458 | 32505 ft | 431 kts | 6° |
| 2026-05-05 08:15 | -33.06618 | 151.86399 | 32939 ft | 430 kts | 6° |
| 2026-05-05 08:15 | -33.03771 | 151.87313 | 33330 ft | 429 kts | 6° |
| 2026-05-05 08:15 | -33.00887 | 151.88237 | 33737 ft | 428 kts | 6° |
| 2026-05-05 08:16 | -32.98012 | 151.89158 | 34135 ft | 427 kts | 6° |
| 2026-05-05 08:16 | -32.95144 | 151.90077 | 34452 ft | 427 kts | 6° |
| 2026-05-05 08:16 | -32.92275 | 151.90994 | 34739 ft | 427 kts | 6° |
| 2026-05-05 08:16 | -32.89408 | 151.91911 | 34984 ft | 427 kts | 5° |
| 2026-05-05 08:17 | -32.86547 | 151.92827 | 35316 ft | 425 kts | 5° |
| 2026-05-05 08:17 | -32.83690 | 151.93740 | 35602 ft | 425 kts | 5° |
| 2026-05-05 08:17 | -32.80837 | 151.94651 | 35892 ft | 424 kts | 5° |
| 2026-05-05 08:17 | -32.77987 | 151.95560 | 36145 ft | 425 kts | 5° |
| 2026-05-05 08:18 | -32.75133 | 151.96469 | 36387 ft | 425 kts | 5° |
| 2026-05-05 08:18 | -32.72278 | 151.97378 | 36631 ft | 425 kts | 5° |
| 2026-05-05 08:18 | -32.69418 | 151.98288 | 36866 ft | 425 kts | 5° |
| 2026-05-05 08:18 | -32.66561 | 151.99197 | 37095 ft | 425 kts | 5° |
| 2026-05-05 08:19 | -32.63702 | 152.00106 | 37326 ft | 426 kts | 5° |
| 2026-05-05 08:19 | -32.60841 | 152.01015 | 37553 ft | 426 kts | 5° |
| 2026-05-05 08:19 | -32.57982 | 152.01923 | 37778 ft | 426 kts | 5° |
| 2026-05-05 08:19 | -32.55121 | 152.02830 | 37992 ft | 426 kts | 5° |
| 2026-05-05 08:20 | -32.52258 | 152.03738 | 38199 ft | 426 kts | 5° |
| 2026-05-05 08:20 | -32.49393 | 152.04645 | 38373 ft | 426 kts | 5° |
| 2026-05-05 08:20 | -32.46528 | 152.05552 | 38560 ft | 426 kts | 5° |
| 2026-05-05 08:20 | -32.43663 | 152.06460 | 38745 ft | 426 kts | 4° |
| 2026-05-05 08:21 | -32.40797 | 152.07368 | 38898 ft | 426 kts | 4° |
| 2026-05-05 08:21 | -32.37934 | 152.08272 | 39037 ft | 426 kts | 4° |
| 2026-05-05 08:21 | -32.32241 | 152.10071 | 39158 ft | 426 kts | 4° |
| 2026-05-05 08:22 | -32.26519 | 152.11876 | 39149 ft | 425 kts | 4° |
| 2026-05-05 08:22 | -32.20797 | 152.13674 | 39160 ft | 426 kts | 4° |
| 2026-05-05 08:23 | -32.15071 | 152.15473 | 39157 ft | 425 kts | 4° |
| 2026-05-05 08:23 | -32.09349 | 152.17271 | 39158 ft | 426 kts | 4° |
| 2026-05-05 08:24 | -32.03620 | 152.19070 | 39158 ft | 426 kts | 4° |
| 2026-05-05 08:24 | -31.97879 | 152.20864 | 39153 ft | 428 kts | 3° |
| 2026-05-05 08:25 | -31.92106 | 152.22672 | 39162 ft | 429 kts | 3° |
| 2026-05-05 08:25 | -31.86361 | 152.24476 | 39159 ft | 427 kts | 3° |
| 2026-05-05 08:26 | -31.80611 | 152.26272 | 39161 ft | 427 kts | 3° |
| 2026-05-05 08:26 | -31.74895 | 152.28053 | 39158 ft | 429 kts | 2° |
| 2026-05-05 08:27 | -31.69120 | 152.29850 | 39162 ft | 428 kts | 2° |
| 2026-05-05 08:27 | -31.63361 | 152.31640 | 39158 ft | 428 kts | 2° |
| 2026-05-05 08:28 | -31.57591 | 152.33428 | 39159 ft | 429 kts | 2° |
| 2026-05-05 08:28 | -31.51848 | 152.35225 | 39164 ft | 429 kts | 2° |
| 2026-05-05 08:29 | -31.46073 | 152.37004 | 39165 ft | 429 kts | 2° |
| 2026-05-05 08:30 | -31.37409 | 152.39684 | 39165 ft | 429 kts | 2° |
| 2026-05-05 08:30 | -31.31638 | 152.41467 | 39138 ft | 429 kts | 2° |
| 2026-05-05 08:31 | -31.25878 | 152.43235 | 39167 ft | 428 kts | 2° |
| 2026-05-05 08:31 | -31.20112 | 152.45010 | 39160 ft | 429 kts | 2° |
| 2026-05-05 08:32 | -31.14359 | 152.46762 | 39155 ft | 427 kts | 2° |
| 2026-05-05 08:32 | -31.08589 | 152.48531 | 39118 ft | 429 kts | 2° |
| 2026-05-05 08:33 | -31.02913 | 152.50309 | 39162 ft | 419 kts | 2° |
| 2026-05-05 08:33 | -30.97245 | 152.52051 | 39158 ft | 422 kts | 2° |
| 2026-05-05 08:34 | -30.91596 | 152.53779 | 39150 ft | 415 kts | 2° |
| 2026-05-05 08:34 | -30.86058 | 152.55467 | 39154 ft | 416 kts | 2° |
| 2026-05-05 08:35 | -30.80474 | 152.57207 | 39161 ft | 417 kts | 5° |
| 2026-05-05 08:35 | -30.74952 | 152.59620 | 39153 ft | 427 kts | 9° |
| 2026-05-05 08:36 | -30.70379 | 152.61764 | 39164 ft | 426 kts | 9° |
| 2026-05-05 08:36 | -30.63947 | 152.64757 | 39157 ft | 426 kts | 8° |
| 2026-05-05 08:37 | -30.59367 | 152.66873 | 39160 ft | 429 kts | 8° |
| 2026-05-05 08:37 | -30.53810 | 152.69441 | 39155 ft | 428 kts | 8° |
| 2026-05-05 08:38 | -30.48297 | 152.71988 | 39161 ft | 429 kts | 8° |
| 2026-05-05 08:38 | -30.42730 | 152.74548 | 39160 ft | 430 kts | 8° |
| 2026-05-05 08:39 | -30.37179 | 152.77107 | 39151 ft | 430 kts | 8° |
| 2026-05-05 08:39 | -30.31616 | 152.79666 | 39150 ft | 430 kts | 8° |
| 2026-05-05 08:40 | -30.26064 | 152.82218 | 39136 ft | 429 kts | 8° |
| 2026-05-05 08:40 | -30.20503 | 152.84766 | 39149 ft | 431 kts | 8° |
| 2026-05-05 08:41 | -30.14922 | 152.87172 | 39148 ft | 419 kts | 2° |
| 2026-05-05 08:41 | -30.12129 | 152.87945 | 39147 ft | 407 kts | 357° |
| 2026-05-05 08:41 | -30.09348 | 152.88381 | 39148 ft | 399 kts | 352° |
| 2026-05-05 08:42 | -30.03925 | 152.88332 | 39158 ft | 383 kts | 343° |
| 2026-05-05 08:42 | -29.98603 | 152.87795 | 39150 ft | 382 kts | 343° |
| 2026-05-05 08:43 | -29.93299 | 152.87283 | 39143 ft | 384 kts | 343° |
| 2026-05-05 08:43 | -29.87968 | 152.86782 | 39143 ft | 383 kts | 343° |
| 2026-05-05 08:44 | -29.82697 | 152.86285 | 39140 ft | 382 kts | 343° |
| 2026-05-05 08:44 | -29.77361 | 152.85778 | 39138 ft | 382 kts | 343° |
| 2026-05-05 08:45 | -29.72094 | 152.85277 | 39130 ft | 383 kts | 343° |
| 2026-05-05 08:45 | -29.66785 | 152.84774 | 39133 ft | 383 kts | 343° |
| 2026-05-05 08:46 | -29.61487 | 152.84274 | 39135 ft | 381 kts | 343° |
| 2026-05-05 08:46 | -29.56200 | 152.83773 | 39135 ft | 381 kts | 343° |
| 2026-05-05 08:47 | -29.50916 | 152.83273 | 39130 ft | 381 kts | 343° |
| 2026-05-05 08:47 | -29.45636 | 152.82775 | 39129 ft | 381 kts | 343° |
| 2026-05-05 08:47 | -29.42960 | 152.82709 | 39138 ft | 391 kts | 354° |
| 2026-05-05 08:48 | -29.40210 | 152.83085 | 39129 ft | 405 kts | 357° |
| 2026-05-05 08:48 | -29.34682 | 152.84968 | 39126 ft | 423 kts | 6° |
| 2026-05-05 08:49 | -29.29146 | 152.87310 | 39123 ft | 422 kts | 6° |
| 2026-05-05 08:49 | -29.23645 | 152.89630 | 39105 ft | 420 kts | 6° |
| 2026-05-05 08:49 | -29.20908 | 152.90784 | 38593 ft | 418 kts | 6° |
| 2026-05-05 08:50 | -29.18168 | 152.91935 | 37510 ft | 422 kts | 6° |
| 2026-05-05 08:50 | -29.15394 | 152.93092 | 36238 ft | 427 kts | 7° |
| 2026-05-05 08:50 | -29.12651 | 152.94243 | 35415 ft | 422 kts | 7° |
| 2026-05-05 08:50 | -29.09932 | 152.95393 | 34717 ft | 413 kts | 8° |
| 2026-05-05 08:51 | -29.07255 | 152.96522 | 33994 ft | 405 kts | 8° |
| 2026-05-05 08:51 | -29.04626 | 152.97626 | 33038 ft | 402 kts | 8° |
| 2026-05-05 08:51 | -29.01995 | 152.98721 | 31866 ft | 404 kts | 8° |
| 2026-05-05 08:51 | -28.99302 | 152.99829 | 30028 ft | 421 kts | 8° |
| 2026-05-05 08:52 | -28.96448 | 153.00990 | 27708 ft | 448 kts | 10° |
| 2026-05-05 08:52 | -28.93522 | 153.02364 | 26252 ft | 462 kts | 20° |
| 2026-05-05 08:52 | -28.90846 | 153.04410 | 25306 ft | 465 kts | 32° |
| 2026-05-05 08:52 | -28.88569 | 153.07041 | 24379 ft | 468 kts | 45° |
| 2026-05-05 08:53 | -28.86786 | 153.10163 | 23427 ft | 471 kts | 58° |
| 2026-05-05 08:53 | -28.85606 | 153.13638 | 22431 ft | 470 kts | 71° |
| 2026-05-05 08:53 | -28.85095 | 153.17300 | 21504 ft | 467 kts | 84° |
| 2026-05-05 08:53 | -28.85143 | 153.20979 | 20583 ft | 461 kts | 90° |
| 2026-05-05 08:54 | -28.85258 | 153.24595 | 19715 ft | 452 kts | 88° |
| 2026-05-05 08:54 | -28.85235 | 153.28136 | 18846 ft | 443 kts | 85° |
| 2026-05-05 08:54 | -28.85075 | 153.31612 | 17952 ft | 434 kts | 83° |
| 2026-05-05 08:54 | -28.84832 | 153.34998 | 17118 ft | 423 kts | 82° |
| 2026-05-05 08:55 | -28.84555 | 153.38294 | 16274 ft | 413 kts | 82° |
| 2026-05-05 08:55 | -28.84223 | 153.41501 | 15469 ft | 402 kts | 76° |
| 2026-05-05 08:55 | -28.83307 | 153.44442 | 14629 ft | 389 kts | 59° |
| 2026-05-05 08:55 | -28.81703 | 153.46869 | 13737 ft | 381 kts | 42° |
| 2026-05-05 08:56 | -28.79558 | 153.48573 | 12703 ft | 375 kts | 24° |
| 2026-05-05 08:56 | -28.77142 | 153.49645 | 11703 ft | 371 kts | 19° |
| 2026-05-05 08:56 | -28.74726 | 153.50643 | 10804 ft | 367 kts | 19° |
| 2026-05-05 08:56 | -28.72388 | 153.51626 | 10459 ft | 347 kts | 20° |
| 2026-05-05 08:57 | -28.70199 | 153.52571 | 10256 ft | 326 kts | 21° |
| 2026-05-05 08:57 | -28.68146 | 153.53474 | 10073 ft | 306 kts | 21° |
| 2026-05-05 08:57 | -28.66227 | 153.54325 | 9900 ft | 287 kts | 21° |
| 2026-05-05 08:57 | -28.64423 | 153.55128 | 9520 ft | 278 kts | 21° |
| 2026-05-05 08:58 | -28.62627 | 153.55927 | 8954 ft | 277 kts | 21° |
| 2026-05-05 08:58 | -28.60840 | 153.56722 | 8411 ft | 275 kts | 21° |
| 2026-05-05 08:58 | -28.59063 | 153.57512 | 7877 ft | 273 kts | 21° |
| 2026-05-05 08:58 | -28.57298 | 153.58295 | 7355 ft | 272 kts | 21° |
| 2026-05-05 08:59 | -28.55532 | 153.59078 | 6970 ft | 272 kts | 21° |
| 2026-05-05 08:59 | -28.53777 | 153.59854 | 6634 ft | 270 kts | 21° |
| 2026-05-05 08:59 | -28.52031 | 153.60623 | 6286 ft | 269 kts | 21° |
| 2026-05-05 08:59 | -28.50262 | 153.61327 | 5885 ft | 270 kts | 19° |
| 2026-05-05 09:00 | -28.48481 | 153.61988 | 5530 ft | 269 kts | 18° |
| 2026-05-05 09:00 | -28.46706 | 153.62640 | 5180 ft | 268 kts | 18° |
| 2026-05-05 09:00 | -28.44936 | 153.63296 | 4836 ft | 267 kts | 19° |
| 2026-05-05 09:00 | -28.43176 | 153.63953 | 4501 ft | 266 kts | 19° |
| 2026-05-05 09:01 | -28.41432 | 153.64608 | 4244 ft | 261 kts | 19° |
| 2026-05-05 09:01 | -28.39686 | 153.64988 | 4128 ft | 258 kts | 356° |
| 2026-05-05 09:01 | -28.37966 | 153.64437 | 4015 ft | 257 kts | 332° |
| 2026-05-05 09:01 | -28.36418 | 153.63458 | 3975 ft | 250 kts | 328° |
| 2026-05-05 09:02 | -28.34974 | 153.62476 | 3972 ft | 235 kts | 327° |
| 2026-05-05 09:02 | -28.33606 | 153.61553 | 3885 ft | 222 kts | 328° |
| 2026-05-05 09:02 | -28.32330 | 153.60715 | 3828 ft | 201 kts | 328° |
| 2026-05-05 09:02 | -28.31183 | 153.59976 | 3686 ft | 178 kts | 328° |
| 2026-05-05 09:03 | -28.30170 | 153.59328 | 3554 ft | 156 kts | 328° |
| 2026-05-05 09:03 | -28.29260 | 153.58746 | 3314 ft | 147 kts | 328° |
| 2026-05-05 09:03 | -28.28372 | 153.58175 | 2987 ft | 146 kts | 328° |
| 2026-05-05 09:03 | -28.27492 | 153.57608 | 2672 ft | 145 kts | 329° |
| 2026-05-05 09:04 | -28.26622 | 153.57048 | 2364 ft | 143 kts | 329° |
| 2026-05-05 09:04 | -28.25765 | 153.56498 | 2068 ft | 140 kts | 330° |
| 2026-05-05 09:04 | -28.24931 | 153.55964 | 1774 ft | 139 kts | 330° |
| 2026-05-05 09:04 | -28.24090 | 153.55429 | 1470 ft | 138 kts | 330° |
| 2026-05-05 09:05 | -28.23244 | 153.54892 | 1174 ft | 140 kts | 331° |
| 2026-05-05 09:05 | -28.22389 | 153.54350 | 882 ft | 138 kts | 331° |
| 2026-05-05 09:05 | -28.21574 | 153.53831 | 652 ft | 134 kts | 330° |
| 2026-05-05 09:05 | -28.20759 | 153.53305 | 522 ft | 135 kts | 328° |
| 2026-05-05 09:06 | -28.19936 | 153.52801 | 417 ft | 135 kts | 329° |
| 2026-05-05 09:06 | -28.19104 | 153.52265 | 301 ft | 134 kts | 328° |
| 2026-05-05 09:06 | -28.18297 | 153.51751 | 150 ft | 132 kts | 328° |
| 2026-05-05 09:06 | -28.17520 | 153.51251 | 52 ft | 125 kts | 328° |
| 2026-05-05 09:07 | -28.16849 | 153.50817 | 28 ft | 75 kts | 332° |
| 2026-05-05 09:07 | -28.16619 | 153.50695 | 28 ft | 18 kts | 4° |
| 2026-05-05 09:07 | -28.16527 | 153.50801 | 30 ft | 22 kts | 66° |
| 2026-05-05 09:07 | -28.16536 | 153.50954 | 25 ft | 22 kts | 153° |
| 2026-05-05 09:08 | -28.16669 | 153.51036 | 27 ft | 15 kts | 150° |
| 2026-05-05 09:08 | -28.16660 | 153.51117 | 25 ft | 13 kts | 49° |
| 2026-05-05 09:08 | -28.16634 | 153.51166 | 28 ft | 0 kts | 60° |